sensor_id;sensor_type;location;lat;lon;timestamp;pressure;altitude;pressure_sealevel;temperature
70668;BMP280;58242;51.250;-1.118;2022-12-07T00:01:11;101087.19;;;12.14
70668;BMP280;58242;51.250;-1.118;2022-12-07T00:03:38;101087.81;;;12.11
70668;BMP280;58242;51.250;-1.118;2022-12-07T00:06:06;101090.03;;;12.09
70668;BMP280;58242;51.250;-1.118;2022-12-07T00:08:32;101086.06;;;12.07
70668;BMP280;58242;51.250;-1.118;2022-12-07T00:11:09;101088.56;;;12.03
70668;BMP280;58242;51.250;-1.118;2022-12-07T00:13:35;101091.56;;;12.02
70668;BMP280;58242;51.250;-1.118;2022-12-07T00:16:05;101097.22;;;12.00
70668;BMP280;58242;51.250;-1.118;2022-12-07T00:18:31;101082.88;;;11.97
70668;BMP280;58242;51.250;-1.118;2022-12-07T00:21:07;101087.25;;;11.93
70668;BMP280;58242;51.250;-1.118;2022-12-07T00:23:33;101082.03;;;11.88
70668;BMP280;58242;51.250;-1.118;2022-12-07T00:26:10;101080.75;;;11.85
70668;BMP280;58242;51.250;-1.118;2022-12-07T00:28:36;101082.47;;;11.81
70668;BMP280;58242;51.250;-1.118;2022-12-07T00:31:10;101070.50;;;11.79
70668;BMP280;58242;51.250;-1.118;2022-12-07T00:33:36;101071.06;;;11.76
70668;BMP280;58242;51.250;-1.118;2022-12-07T00:36:06;101073.75;;;11.76
70668;BMP280;58242;51.250;-1.118;2022-12-07T00:38:33;101067.13;;;11.74
70668;BMP280;58242;51.250;-1.118;2022-12-07T00:41:01;101074.88;;;11.75
70668;BMP280;58242;51.250;-1.118;2022-12-07T00:43:28;101069.03;;;11.73
70668;BMP280;58242;51.250;-1.118;2022-12-07T00:45:54;101072.19;;;11.75
70668;BMP280;58242;51.250;-1.118;2022-12-07T00:48:20;101062.75;;;11.78
70668;BMP280;58242;51.250;-1.118;2022-12-07T00:50:45;101068.28;;;11.81
70668;BMP280;58242;51.250;-1.118;2022-12-07T00:53:11;101066.41;;;11.81
70668;BMP280;58242;51.250;-1.118;2022-12-07T00:55:36;101066.56;;;11.85
70668;BMP280;58242;51.250;-1.118;2022-12-07T00:58:02;101060.91;;;11.86
70668;BMP280;58242;51.250;-1.118;2022-12-07T01:00:27;101058.53;;;11.85
70668;BMP280;58242;51.250;-1.118;2022-12-07T01:02:53;101053.00;;;11.81
70668;BMP280;58242;51.250;-1.118;2022-12-07T01:05:18;101049.84;;;11.80
70668;BMP280;58242;51.250;-1.118;2022-12-07T01:07:44;101056.59;;;11.77
70668;BMP280;58242;51.250;-1.118;2022-12-07T01:10:09;101038.16;;;11.76
70668;BMP280;58242;51.250;-1.118;2022-12-07T01:12:35;101048.69;;;11.72
70668;BMP280;58242;51.250;-1.118;2022-12-07T01:15:00;101050.59;;;11.72
70668;BMP280;58242;51.250;-1.118;2022-12-07T01:17:26;101044.75;;;11.70
70668;BMP280;58242;51.250;-1.118;2022-12-07T01:19:51;101044.56;;;11.66
70668;BMP280;58242;51.250;-1.118;2022-12-07T01:22:16;101053.22;;;11.63
70668;BMP280;58242;51.250;-1.118;2022-12-07T01:24:41;101045.59;;;11.57
70668;BMP280;58242;51.250;-1.118;2022-12-07T01:27:07;101051.41;;;11.51
70668;BMP280;58242;51.250;-1.118;2022-12-07T01:29:32;101045.19;;;11.42
70668;BMP280;58242;51.250;-1.118;2022-12-07T01:31:57;101049.09;;;11.36
70668;BMP280;58242;51.250;-1.118;2022-12-07T01:34:23;101050.34;;;11.30
70668;BMP280;58242;51.250;-1.118;2022-12-07T01:36:48;101041.81;;;11.28
70668;BMP280;58242;51.250;-1.118;2022-12-07T01:39:13;101038.13;;;11.25
70668;BMP280;58242;51.250;-1.118;2022-12-07T01:41:40;101036.06;;;11.22
70668;BMP280;58242;51.250;-1.118;2022-12-07T01:46:36;101045.97;;;11.21
70668;BMP280;58242;51.250;-1.118;2022-12-07T01:49:03;101047.25;;;11.24
70668;BMP280;58242;51.250;-1.118;2022-12-07T01:51:31;101046.94;;;11.25
70668;BMP280;58242;51.250;-1.118;2022-12-07T01:53:57;101045.56;;;11.28
70668;BMP280;58242;51.250;-1.118;2022-12-07T01:56:26;101045.56;;;11.28
70668;BMP280;58242;51.250;-1.118;2022-12-07T01:58:52;101044.56;;;11.24
70668;BMP280;58242;51.250;-1.118;2022-12-07T02:01:19;101044.88;;;11.22
70668;BMP280;58242;51.250;-1.118;2022-12-07T02:03:44;101059.66;;;11.20
70668;BMP280;58242;51.250;-1.118;2022-12-07T02:06:13;101045.59;;;11.14
70668;BMP280;58242;51.250;-1.118;2022-12-07T02:08:42;101052.34;;;11.12
70668;BMP280;58242;51.250;-1.118;2022-12-07T02:11:08;101058.81;;;11.11
70668;BMP280;58242;51.250;-1.118;2022-12-07T02:13:35;101054.03;;;11.08
70668;BMP280;58242;51.250;-1.118;2022-12-07T02:21:55;101055.34;;;11.11
70668;BMP280;58242;51.250;-1.118;2022-12-07T02:29:55;101052.94;;;11.09
70668;BMP280;58242;51.250;-1.118;2022-12-07T02:32:27;101050.78;;;11.11
70668;BMP280;58242;51.250;-1.118;2022-12-07T02:35:12;101055.53;;;11.14
70668;BMP280;58242;51.250;-1.118;2022-12-07T02:40:38;101043.59;;;11.20
70668;BMP280;58242;51.250;-1.118;2022-12-07T02:43:11;101043.59;;;11.20
70668;BMP280;58242;51.250;-1.118;2022-12-07T02:45:40;101041.09;;;11.23
70668;BMP280;58242;51.250;-1.118;2022-12-07T02:48:08;101041.59;;;11.25
70668;BMP280;58242;51.250;-1.118;2022-12-07T02:50:34;101048.25;;;11.28
70668;BMP280;58242;51.250;-1.118;2022-12-07T02:53:00;101034.84;;;11.28
70668;BMP280;58242;51.250;-1.118;2022-12-07T02:55:30;101042.88;;;11.28
70668;BMP280;58242;51.250;-1.118;2022-12-07T02:58:21;101038.13;;;11.25
70668;BMP280;58242;51.250;-1.118;2022-12-07T03:00:57;101044.56;;;11.24
70668;BMP280;58242;51.250;-1.118;2022-12-07T03:03:27;101039.81;;;11.21
70668;BMP280;58242;51.250;-1.118;2022-12-07T03:08:43;101044.19;;;11.17
70668;BMP280;58242;51.250;-1.118;2022-12-07T03:11:36;101040.56;;;11.13
70668;BMP280;58242;51.250;-1.118;2022-12-07T03:14:17;101040.25;;;11.14
70668;BMP280;58242;51.250;-1.118;2022-12-07T03:16:50;101039.47;;;11.14
70668;BMP280;58242;51.250;-1.118;2022-12-07T03:19:20;101033.31;;;11.13
70668;BMP280;58242;51.250;-1.118;2022-12-07T03:22:07;101036.78;;;11.14
70668;BMP280;58242;51.250;-1.118;2022-12-07T03:24:39;101038.84;;;11.17
70668;BMP280;58242;51.250;-1.118;2022-12-07T03:27:09;101035.09;;;11.18
70668;BMP280;58242;51.250;-1.118;2022-12-07T03:29:42;101038.84;;;11.17
70668;BMP280;58242;51.250;-1.118;2022-12-07T03:32:46;101035.19;;;11.13
70668;BMP280;58242;51.250;-1.118;2022-12-07T03:35:34;101031.72;;;11.12
70668;BMP280;58242;51.250;-1.118;2022-12-07T03:40:43;101047.00;;;11.12
70668;BMP280;58242;51.250;-1.118;2022-12-07T03:43:10;101030.63;;;11.13
70668;BMP280;58242;51.250;-1.118;2022-12-07T03:45:42;101031.91;;;11.16
70668;BMP280;58242;51.250;-1.118;2022-12-07T03:50:51;101028.47;;;11.15
70668;BMP280;58242;51.250;-1.118;2022-12-07T03:53:26;101020.72;;;11.14
70668;BMP280;58242;51.250;-1.118;2022-12-07T03:55:55;101024.19;;;11.14
70668;BMP280;58242;51.250;-1.118;2022-12-07T03:58:22;101025.78;;;11.15
70668;BMP280;58242;51.250;-1.118;2022-12-07T04:00:49;101021.19;;;11.16
70668;BMP280;58242;51.250;-1.118;2022-12-07T04:03:15;101020.44;;;11.15
70668;BMP280;58242;51.250;-1.118;2022-12-07T04:05:40;101025.00;;;11.15
70668;BMP280;58242;51.250;-1.118;2022-12-07T04:08:06;101023.88;;;11.16
70668;BMP280;58242;51.250;-1.118;2022-12-07T04:10:31;101022.78;;;11.17
70668;BMP280;58242;51.250;-1.118;2022-12-07T04:12:57;101024.38;;;11.18
70668;BMP280;58242;51.250;-1.118;2022-12-07T04:15:22;101019.50;;;11.20
70668;BMP280;58242;51.250;-1.118;2022-12-07T04:17:47;101013.06;;;11.21
70668;BMP280;58242;51.250;-1.118;2022-12-07T04:20:13;101024.28;;;11.23
70668;BMP280;58242;51.250;-1.118;2022-12-07T04:22:39;101015.44;;;11.22
70668;BMP280;58242;51.250;-1.118;2022-12-07T04:25:05;101019.38;;;11.25
70668;BMP280;58242;51.250;-1.118;2022-12-07T04:27:30;101016.44;;;11.26
70668;BMP280;58242;51.250;-1.118;2022-12-07T04:29:56;101019.91;;;11.27
70668;BMP280;58242;51.250;-1.118;2022-12-07T04:32:22;101021.47;;;11.28
70668;BMP280;58242;51.250;-1.118;2022-12-07T04:34:48;101010.75;;;11.28
70668;BMP280;58242;51.250;-1.118;2022-12-07T04:37:13;101014.25;;;11.28
70668;BMP280;58242;51.250;-1.118;2022-12-07T04:39:38;101009.69;;;11.28
70668;BMP280;58242;51.250;-1.118;2022-12-07T04:42:04;101012.34;;;11.28
70668;BMP280;58242;51.250;-1.118;2022-12-07T04:44:29;100999.78;;;11.29
70668;BMP280;58242;51.250;-1.118;2022-12-07T04:46:55;101002.75;;;11.28
70668;BMP280;58242;51.250;-1.118;2022-12-07T04:49:20;101000.06;;;11.28
70668;BMP280;58242;51.250;-1.118;2022-12-07T04:51:46;101005.41;;;11.28
70668;BMP280;58242;51.250;-1.118;2022-12-07T04:54:13;101003.06;;;11.26
70668;BMP280;58242;51.250;-1.118;2022-12-07T04:56:38;101007.88;;;11.24
70668;BMP280;58242;51.250;-1.118;2022-12-07T04:59:04;101010.88;;;11.23
70668;BMP280;58242;51.250;-1.118;2022-12-07T05:01:30;101014.31;;;11.23
70668;BMP280;58242;51.250;-1.118;2022-12-07T05:03:56;101005.81;;;11.21
70668;BMP280;58242;51.250;-1.118;2022-12-07T05:06:21;101003.44;;;11.20
70668;BMP280;58242;51.250;-1.118;2022-12-07T05:08:46;101000.75;;;11.20
70668;BMP280;58242;51.250;-1.118;2022-12-07T05:11:12;101003.44;;;11.20
70668;BMP280;58242;51.250;-1.118;2022-12-07T05:13:58;100997.31;;;11.19
70668;BMP280;58242;51.250;-1.118;2022-12-07T05:16:23;101003.75;;;11.18
70668;BMP280;58242;51.250;-1.118;2022-12-07T05:18:49;101005.34;;;11.19
70668;BMP280;58242;51.250;-1.118;2022-12-07T05:21:14;101002.19;;;11.17
70668;BMP280;58242;51.250;-1.118;2022-12-07T05:23:40;101004.66;;;11.14
70668;BMP280;58242;51.250;-1.118;2022-12-07T05:26:05;101001.50;;;11.12
70668;BMP280;58242;51.250;-1.118;2022-12-07T05:28:30;100997.25;;;11.11
70668;BMP280;58242;51.250;-1.118;2022-12-07T05:30:56;100999.94;;;11.11
70668;BMP280;58242;51.250;-1.118;2022-12-07T05:33:21;101002.63;;;11.11
70668;BMP280;58242;51.250;-1.118;2022-12-07T05:35:46;100990.31;;;11.10
70668;BMP280;58242;51.250;-1.118;2022-12-07T05:38:12;100996.75;;;11.09
70668;BMP280;58242;51.250;-1.118;2022-12-07T05:40:37;100996.28;;;11.07
70668;BMP280;58242;51.250;-1.118;2022-12-07T05:43:02;101001.63;;;11.07
70668;BMP280;58242;51.250;-1.118;2022-12-07T05:45:27;100998.16;;;11.07
70668;BMP280;58242;51.250;-1.118;2022-12-07T05:47:53;100992.31;;;11.05
70668;BMP280;58242;51.250;-1.118;2022-12-07T05:50:18;100989.16;;;11.03
70668;BMP280;58242;51.250;-1.118;2022-12-07T05:52:44;100987.56;;;11.02
70668;BMP280;58242;51.250;-1.118;2022-12-07T05:55:09;100977.50;;;10.99
70668;BMP280;58242;51.250;-1.118;2022-12-07T05:57:34;100980.97;;;10.99
70668;BMP280;58242;51.250;-1.118;2022-12-07T06:00:00;100980.47;;;10.97
70668;BMP280;58242;51.250;-1.118;2022-12-07T06:02:25;100979.66;;;10.97
70668;BMP280;58242;51.250;-1.118;2022-12-07T06:04:51;100977.31;;;10.95
70668;BMP280;58242;51.250;-1.118;2022-12-07T06:07:17;100980.28;;;10.94
70668;BMP280;58242;51.250;-1.118;2022-12-07T06:09:42;100979.47;;;10.93
70668;BMP280;58242;51.250;-1.118;2022-12-07T06:12:10;100974.94;;;10.94
70668;BMP280;58242;51.250;-1.118;2022-12-07T06:14:54;100977.44;;;10.91
70668;BMP280;58242;51.250;-1.118;2022-12-07T06:17:19;100982.78;;;10.91
70668;BMP280;58242;51.250;-1.118;2022-12-07T06:19:45;100981.19;;;10.90
70668;BMP280;58242;51.250;-1.118;2022-12-07T06:22:10;100980.72;;;10.88
70668;BMP280;58242;51.250;-1.118;2022-12-07T06:24:37;100986.34;;;10.86
70668;BMP280;58242;51.250;-1.118;2022-12-07T06:27:02;100979.72;;;10.84
70668;BMP280;58242;51.250;-1.118;2022-12-07T06:29:28;100999.06;;;10.81
70668;BMP280;58242;51.250;-1.118;2022-12-07T06:31:53;100999.38;;;10.79
70668;BMP280;58242;51.250;-1.118;2022-12-07T06:34:20;101000.78;;;10.77
70668;BMP280;58242;51.250;-1.118;2022-12-07T06:36:47;100988.28;;;10.73
70668;BMP280;58242;51.250;-1.118;2022-12-07T06:39:17;100992.84;;;10.72
70668;BMP280;58242;51.250;-1.118;2022-12-07T06:41:42;100976.81;;;10.72
70668;BMP280;58242;51.250;-1.118;2022-12-07T06:44:08;100988.91;;;10.70
70668;BMP280;58242;51.250;-1.118;2022-12-07T06:46:33;100986.53;;;10.68
70668;BMP280;58242;51.250;-1.118;2022-12-07T06:49:00;100988.41;;;10.68
70668;BMP280;58242;51.250;-1.118;2022-12-07T06:51:25;100984.94;;;10.67
70668;BMP280;58242;51.250;-1.118;2022-12-07T06:53:51;100984.94;;;10.67
70668;BMP280;58242;51.250;-1.118;2022-12-07T06:56:16;100991.41;;;10.66
70668;BMP280;58242;51.250;-1.118;2022-12-07T06:58:41;101000.50;;;10.65
70668;BMP280;58242;51.250;-1.118;2022-12-07T07:01:11;100993.28;;;10.66
70668;BMP280;58242;51.250;-1.118;2022-12-07T07:03:38;101002.38;;;10.65
70668;BMP280;58242;51.250;-1.118;2022-12-07T07:06:04;100991.69;;;10.65
70668;BMP280;58242;51.250;-1.118;2022-12-07T07:08:30;101001.59;;;10.64
70668;BMP280;58242;51.250;-1.118;2022-12-07T07:10:55;101005.06;;;10.65
70668;BMP280;58242;51.250;-1.118;2022-12-07T07:13:21;101011.19;;;10.65
70668;BMP280;58242;51.250;-1.118;2022-12-07T07:15:46;101005.53;;;10.67
70668;BMP280;58242;51.250;-1.118;2022-12-07T07:18:11;101008.72;;;10.69
70668;BMP280;58242;51.250;-1.118;2022-12-07T07:20:37;101005.25;;;10.68
70668;BMP280;58242;51.250;-1.118;2022-12-07T07:23:03;100996.75;;;10.66
70668;BMP280;58242;51.250;-1.118;2022-12-07T07:25:28;101000.50;;;10.65
70668;BMP280;58242;51.250;-1.118;2022-12-07T07:27:54;100994.06;;;10.66
70668;BMP280;58242;51.250;-1.118;2022-12-07T07:30:19;100991.97;;;10.63
70668;BMP280;58242;51.250;-1.118;2022-12-07T07:32:44;100991.97;;;10.63
70668;BMP280;58242;51.250;-1.118;2022-12-07T07:35:10;100989.91;;;10.60
70668;BMP280;58242;51.250;-1.118;2022-12-07T07:37:35;101003.78;;;10.62
70668;BMP280;58242;51.250;-1.118;2022-12-07T07:40:00;101003.78;;;10.62
70668;BMP280;58242;51.250;-1.118;2022-12-07T07:42:26;101003.78;;;10.62
70668;BMP280;58242;51.250;-1.118;2022-12-07T07:44:51;100997.03;;;10.65
70668;BMP280;58242;51.250;-1.118;2022-12-07T07:47:16;101002.84;;;10.67
70668;BMP280;58242;51.250;-1.118;2022-12-07T07:49:41;100994.84;;;10.67
70668;BMP280;58242;51.250;-1.118;2022-12-07T07:52:07;100999.09;;;10.68
70668;BMP280;58242;51.250;-1.118;2022-12-07T07:54:32;100987.59;;;10.67
70668;BMP280;58242;51.250;-1.118;2022-12-07T07:56:58;101006.31;;;10.67
70668;BMP280;58242;51.250;-1.118;2022-12-07T07:59:23;100998.31;;;10.67
70668;BMP280;58242;51.250;-1.118;2022-12-07T08:01:49;101002.84;;;10.67
70668;BMP280;58242;51.250;-1.118;2022-12-07T08:04:15;100994.38;;;10.65
70668;BMP280;58242;51.250;-1.118;2022-12-07T08:06:41;100999.22;;;10.63
70668;BMP280;58242;51.250;-1.118;2022-12-07T08:09:07;100997.94;;;10.60
70668;BMP280;58242;51.250;-1.118;2022-12-07T08:11:33;100997.47;;;10.59
70668;BMP280;58242;51.250;-1.118;2022-12-07T08:13:58;101004.78;;;10.53
70668;BMP280;58242;51.250;-1.118;2022-12-07T08:16:23;101004.09;;;10.48
70668;BMP280;58242;51.250;-1.118;2022-12-07T08:18:49;101006.09;;;10.43
70668;BMP280;58242;51.250;-1.118;2022-12-07T08:21:15;101003.53;;;10.38
70668;BMP280;58242;51.250;-1.118;2022-12-07T08:23:40;101021.56;;;10.32
70668;BMP280;58242;51.250;-1.118;2022-12-07T08:26:08;101025.94;;;10.28
70668;BMP280;58242;51.250;-1.118;2022-12-07T08:28:34;101023.84;;;10.25
70668;BMP280;58242;51.250;-1.118;2022-12-07T08:31:01;101014.53;;;10.23
70668;BMP280;58242;51.250;-1.118;2022-12-07T08:33:27;101019.09;;;10.23
70668;BMP280;58242;51.250;-1.118;2022-12-07T08:35:52;101021.28;;;10.21
70668;BMP280;58242;51.250;-1.118;2022-12-07T08:38:18;101020.50;;;10.20
70668;BMP280;58242;51.250;-1.118;2022-12-07T08:40:43;101022.06;;;10.21
70668;BMP280;58242;51.250;-1.118;2022-12-07T08:43:08;101019.88;;;10.23
70668;BMP280;58242;51.250;-1.118;2022-12-07T08:45:33;101007.31;;;10.24
70668;BMP280;58242;51.250;-1.118;2022-12-07T08:48:11;101013.66;;;10.27
70668;BMP280;58242;51.250;-1.118;2022-12-07T08:50:38;101016.31;;;10.27
70668;BMP280;58242;51.250;-1.118;2022-12-07T08:53:04;101009.72;;;10.25
70668;BMP280;58242;51.250;-1.118;2022-12-07T08:55:31;101002.25;;;10.22
70668;BMP280;58242;51.250;-1.118;2022-12-07T08:57:58;101012.75;;;10.19
70668;BMP280;58242;51.250;-1.118;2022-12-07T09:00:24;101014.94;;;10.17
70668;BMP280;58242;51.250;-1.118;2022-12-07T09:02:49;101019.78;;;10.15
70668;BMP280;58242;51.250;-1.118;2022-12-07T09:05:15;101017.72;;;10.12
70668;BMP280;58242;51.250;-1.118;2022-12-07T09:07:42;101016.91;;;10.11
70668;BMP280;58242;51.250;-1.118;2022-12-07T09:10:08;101017.25;;;10.10
70668;BMP280;58242;51.250;-1.118;2022-12-07T09:12:33;101020.66;;;10.10
70668;BMP280;58242;51.250;-1.118;2022-12-07T09:14:59;101014.25;;;10.11
70668;BMP280;58242;51.250;-1.118;2022-12-07T09:17:25;101019.19;;;10.18
70668;BMP280;58242;51.250;-1.118;2022-12-07T09:19:51;101006.53;;;10.23
70668;BMP280;58242;51.250;-1.118;2022-12-07T09:22:16;101008.22;;;10.32
70668;BMP280;58242;51.250;-1.118;2022-12-07T09:24:41;101005.78;;;10.44
70668;BMP280;58242;51.250;-1.118;2022-12-07T09:27:07;101009.34;;;10.53
70668;BMP280;58242;51.250;-1.118;2022-12-07T09:29:32;101005.16;;;10.60
70668;BMP280;58242;51.250;-1.118;2022-12-07T09:31:57;101004.78;;;10.66
70668;BMP280;58242;51.250;-1.118;2022-12-07T09:34:23;101013.34;;;10.77
70668;BMP280;58242;51.250;-1.118;2022-12-07T09:36:48;101015.97;;;10.90
70668;BMP280;58242;51.250;-1.118;2022-12-07T09:39:14;100999.06;;;11.02
70668;BMP280;58242;51.250;-1.118;2022-12-07T09:41:43;101000.47;;;11.21
70668;BMP280;58242;51.250;-1.118;2022-12-07T09:44:14;101001.88;;;11.40
70668;BMP280;58242;51.250;-1.118;2022-12-07T09:46:44;100992.44;;;11.72
70668;BMP280;58242;51.250;-1.118;2022-12-07T09:49:21;101005.69;;;12.15
70668;BMP280;58242;51.250;-1.118;2022-12-07T09:51:47;100997.13;;;12.59
70668;BMP280;58242;51.250;-1.118;2022-12-07T09:54:15;100997.63;;;13.02
70668;BMP280;58242;51.250;-1.118;2022-12-07T09:56:42;100998.63;;;13.51
70668;BMP280;58242;51.250;-1.118;2022-12-07T09:59:17;101006.53;;;14.09
70668;BMP280;58242;51.250;-1.118;2022-12-07T10:01:46;100995.78;;;14.57
70668;BMP280;58242;51.250;-1.118;2022-12-07T10:06:43;100985.75;;;15.06
70668;BMP280;58242;51.250;-1.118;2022-12-07T10:09:10;100984.91;;;15.13
70668;BMP280;58242;51.250;-1.118;2022-12-07T10:12:06;100980.19;;;15.10
70668;BMP280;58242;51.250;-1.118;2022-12-07T10:14:34;100984.09;;;15.13
70668;BMP280;58242;51.250;-1.118;2022-12-07T10:16:59;100977.25;;;15.15
70668;BMP280;58242;51.250;-1.118;2022-12-07T10:19:32;100971.50;;;15.05
70668;BMP280;58242;51.250;-1.118;2022-12-07T10:22:16;100973.22;;;14.89
70668;BMP280;58242;51.250;-1.118;2022-12-07T10:24:43;100974.91;;;14.74
70668;BMP280;58242;51.250;-1.118;2022-12-07T10:27:18;100964.22;;;14.46
70668;BMP280;58242;51.250;-1.118;2022-12-07T10:29:48;100978.56;;;14.30
70668;BMP280;58242;51.250;-1.118;2022-12-07T10:34:40;100962.66;;;13.88
70668;BMP280;58242;51.250;-1.118;2022-12-07T10:37:26;100956.22;;;13.65
70668;BMP280;58242;51.250;-1.118;2022-12-07T10:39:55;100952.81;;;13.48
70668;BMP280;58242;51.250;-1.118;2022-12-07T10:42:29;100948.63;;;13.30
70668;BMP280;58242;51.250;-1.118;2022-12-07T10:45:16;100941.25;;;13.11
70668;BMP280;58242;51.250;-1.118;2022-12-07T10:48:08;100940.94;;;12.96
70668;BMP280;58242;51.250;-1.118;2022-12-07T10:53:37;100947.75;;;12.60
70668;BMP280;58242;51.250;-1.118;2022-12-07T11:01:50;100941.22;;;12.20
70668;BMP280;58242;51.250;-1.118;2022-12-07T11:07:46;100931.84;;;11.93
70668;BMP280;58242;51.250;-1.118;2022-12-07T11:15:37;100935.22;;;11.68
70668;BMP280;58242;51.250;-1.118;2022-12-07T11:18:23;100934.88;;;11.62
70668;BMP280;58242;51.250;-1.118;2022-12-07T11:21:09;100926.84;;;11.62
70668;BMP280;58242;51.250;-1.118;2022-12-07T11:24:01;100925.13;;;11.65
70668;BMP280;58242;51.250;-1.118;2022-12-07T11:32:00;100899.81;;;11.71
70668;BMP280;58242;51.250;-1.118;2022-12-07T11:36:56;100893.34;;;11.80
70668;BMP280;58242;51.250;-1.118;2022-12-07T11:41:49;100889.91;;;11.88
70668;BMP280;58242;51.250;-1.118;2022-12-07T11:47:11;100891.34;;;11.94
70668;BMP280;58242;51.250;-1.118;2022-12-07T11:50:13;100894.81;;;12.03
70668;BMP280;58242;51.250;-1.118;2022-12-07T11:52:58;100889.34;;;12.16
70668;BMP280;58242;51.250;-1.118;2022-12-07T11:55:39;100878.59;;;12.32
70668;BMP280;58242;51.250;-1.118;2022-12-07T12:06:43;100863.16;;;13.32
70668;BMP280;58242;51.250;-1.118;2022-12-07T12:21:25;100841.47;;;13.45
70668;BMP280;58242;51.250;-1.118;2022-12-07T12:25:55;100846.53;;;13.38
70668;BMP280;58242;51.250;-1.118;2022-12-07T12:28:41;100838.94;;;13.40
70668;BMP280;58242;51.250;-1.118;2022-12-07T12:31:16;100835.16;;;13.41
70668;BMP280;58242;51.250;-1.118;2022-12-07T12:33:49;100826.47;;;13.36
70668;BMP280;58242;51.250;-1.118;2022-12-07T12:47:03;100817.28;;;13.00
70668;BMP280;58242;51.250;-1.118;2022-12-07T12:49:35;100816.38;;;12.97
70668;BMP280;58242;51.250;-1.118;2022-12-07T12:55:00;100810.41;;;12.83
70668;BMP280;58242;51.250;-1.118;2022-12-07T12:57:28;100802.19;;;12.88
70668;BMP280;58242;51.250;-1.118;2022-12-07T13:02:24;100796.44;;;13.06
70668;BMP280;58242;51.250;-1.118;2022-12-07T13:15:41;100773.03;;;13.43
70668;BMP280;58242;51.250;-1.118;2022-12-07T13:20:53;100766.44;;;13.88
70668;BMP280;58242;51.250;-1.118;2022-12-07T13:23:23;100763.72;;;14.28
70668;BMP280;58242;51.250;-1.118;2022-12-07T13:25:54;100766.06;;;14.61
70668;BMP280;58242;51.250;-1.118;2022-12-07T13:28:22;100758.63;;;14.90
70668;BMP280;58242;51.250;-1.118;2022-12-07T13:31:03;100738.91;;;15.21
70668;BMP280;58242;51.250;-1.118;2022-12-07T13:33:29;100749.78;;;15.36
70668;BMP280;58242;51.250;-1.118;2022-12-07T13:35:55;100749.91;;;15.40
70668;BMP280;58242;51.250;-1.118;2022-12-07T13:41:03;100740.72;;;15.17
70668;BMP280;58242;51.250;-1.118;2022-12-07T13:43:29;100741.59;;;14.98
70668;BMP280;58242;51.250;-1.118;2022-12-07T13:45:58;100730.44;;;14.76
70668;BMP280;58242;51.250;-1.118;2022-12-07T13:48:36;100737.34;;;14.54
70668;BMP280;58242;51.250;-1.118;2022-12-07T13:51:20;100729.66;;;14.32
70668;BMP280;58242;51.250;-1.118;2022-12-07T13:53:49;100734.16;;;14.08
70668;BMP280;58242;51.250;-1.118;2022-12-07T13:56:15;100727.63;;;13.98
70668;BMP280;58242;51.250;-1.118;2022-12-07T13:58:41;100721.28;;;13.82
70668;BMP280;58242;51.250;-1.118;2022-12-07T14:01:07;100712.66;;;13.68
70668;BMP280;58242;51.250;-1.118;2022-12-07T14:03:34;100707.06;;;13.53
70668;BMP280;58242;51.250;-1.118;2022-12-07T14:06:46;100702.75;;;13.41
70668;BMP280;58242;51.250;-1.118;2022-12-07T14:09:07;100703.78;;;13.28
70668;BMP280;58242;51.250;-1.118;2022-12-07T14:11:32;100707.44;;;13.24
70668;BMP280;58242;51.250;-1.118;2022-12-07T14:14:02;100706.34;;;13.25
70668;BMP280;58242;51.250;-1.118;2022-12-07T14:16:36;100694.81;;;13.24
70668;BMP280;58242;51.250;-1.118;2022-12-07T14:19:04;100689.31;;;13.21
70668;BMP280;58242;51.250;-1.118;2022-12-07T14:21:34;100692.81;;;13.13
70668;BMP280;58242;51.250;-1.118;2022-12-07T14:24:18;100694.00;;;13.04
70668;BMP280;58242;51.250;-1.118;2022-12-07T14:26:45;100689.28;;;12.93
70668;BMP280;58242;51.250;-1.118;2022-12-07T14:31:56;100687.22;;;12.70
70668;BMP280;58242;51.250;-1.118;2022-12-07T14:34:22;100683.31;;;12.59
70668;BMP280;58242;51.250;-1.118;2022-12-07T14:36:48;100669.44;;;12.49
70668;BMP280;58242;51.250;-1.118;2022-12-07T14:39:14;100674.03;;;12.40
70668;BMP280;58242;51.250;-1.118;2022-12-07T14:41:39;100680.19;;;12.32
70668;BMP280;58242;51.250;-1.118;2022-12-07T14:44:18;100676.78;;;12.24
70668;BMP280;58242;51.250;-1.118;2022-12-07T14:46:43;100671.13;;;12.17
70668;BMP280;58242;51.250;-1.118;2022-12-07T14:49:09;100667.03;;;12.11
70668;BMP280;58242;51.250;-1.118;2022-12-07T14:51:36;100659.13;;;12.06
70668;BMP280;58242;51.250;-1.118;2022-12-07T14:54:04;100670.06;;;12.01
70668;BMP280;58242;51.250;-1.118;2022-12-07T14:56:30;100659.03;;;11.95
70668;BMP280;58242;51.250;-1.118;2022-12-07T14:58:56;100658.41;;;11.89
70668;BMP280;58242;51.250;-1.118;2022-12-07T15:01:21;100652.88;;;11.86
70668;BMP280;58242;51.250;-1.118;2022-12-07T15:03:47;100656.97;;;11.83
70668;BMP280;58242;51.250;-1.118;2022-12-07T15:06:15;100658.75;;;11.80
70668;BMP280;58242;51.250;-1.118;2022-12-07T15:08:41;100663.16;;;11.76
70668;BMP280;58242;51.250;-1.118;2022-12-07T15:11:11;100656.84;;;11.72
70668;BMP280;58242;51.250;-1.118;2022-12-07T15:13:37;100650.84;;;11.66
70668;BMP280;58242;51.250;-1.118;2022-12-07T15:16:21;100652.13;;;11.61
70668;BMP280;58242;51.250;-1.118;2022-12-07T15:18:46;100649.59;;;11.56
70668;BMP280;58242;51.250;-1.118;2022-12-07T15:21:15;100647.09;;;11.51
70668;BMP280;58242;51.250;-1.118;2022-12-07T15:23:41;100651.19;;;11.48
70668;BMP280;58242;51.250;-1.118;2022-12-07T15:26:07;100651.50;;;11.47
70668;BMP280;58242;51.250;-1.118;2022-12-07T15:28:33;100649.44;;;11.44
70668;BMP280;58242;51.250;-1.118;2022-12-07T15:30:59;100647.72;;;11.40
70668;BMP280;58242;51.250;-1.118;2022-12-07T15:33:24;100646.75;;;11.36
70668;BMP280;58242;51.250;-1.118;2022-12-07T15:35:49;100638.88;;;11.31
70668;BMP280;58242;51.250;-1.118;2022-12-07T15:38:15;100636.38;;;11.26
70668;BMP280;58242;51.250;-1.118;2022-12-07T15:40:40;100639.97;;;11.22
70668;BMP280;58242;51.250;-1.118;2022-12-07T15:43:08;100648.94;;;11.17
70668;BMP280;58242;51.250;-1.118;2022-12-07T15:45:54;100649.41;;;11.11
70668;BMP280;58242;51.250;-1.118;2022-12-07T15:48:19;100639.63;;;11.07
70668;BMP280;58242;51.250;-1.118;2022-12-07T15:50:44;100638.97;;;11.01